createdAt,value
2022-12-18T00:02:12.479Z,92.45
2022-12-18T00:04:39.039Z,92.49
2022-12-18T00:07:05.367Z,92.46
2022-12-18T00:09:39.689Z,92.33
2022-12-18T00:14:45.191Z,92.38
2022-12-18T00:17:11.553Z,92.31
2022-12-18T00:19:37.846Z,92.40
2022-12-18T00:22:04.310Z,92.26
2022-12-18T00:24:30.670Z,92.27
2022-12-18T00:26:58.382Z,92.16
2022-12-18T00:29:24.802Z,91.98
2022-12-18T00:31:51.192Z,92.16
2022-12-18T00:34:17.529Z,92.19
2022-12-18T00:36:43.838Z,92.11
2022-12-18T00:39:12.975Z,92.13
2022-12-18T00:41:58.234Z,92.08
2022-12-18T00:44:24.560Z,92.30
2022-12-18T00:46:50.950Z,92.08
2022-12-18T00:49:19.861Z,92.10
2022-12-18T00:51:47.020Z,92.35
2022-12-18T00:54:13.723Z,92.16
2022-12-18T00:56:48.387Z,91.99
2022-12-18T00:59:15.795Z,92.19
2022-12-18T01:01:42.306Z,92.14
2022-12-18T01:04:09.037Z,92.28
2022-12-18T01:06:35.468Z,92.30
2022-12-18T01:09:03.081Z,92.53
2022-12-18T01:11:29.431Z,92.09
2022-12-18T01:13:56.309Z,91.89
2022-12-18T01:16:23.662Z,92.00
2022-12-18T01:18:53.995Z,92.23
2022-12-18T01:21:21.167Z,92.11
2022-12-18T01:23:48.031Z,92.14
2022-12-18T01:26:17.955Z,92.26
2022-12-18T01:28:44.977Z,92.32
2022-12-18T01:31:15.723Z,92.15
2022-12-18T01:33:42.806Z,91.97
2022-12-18T01:36:14.993Z,92.27
2022-12-18T01:38:41.303Z,92.11
2022-12-18T01:41:07.985Z,92.13
2022-12-18T01:43:56.117Z,91.98
2022-12-18T01:46:26.012Z,92.14
2022-12-18T01:48:57.485Z,92.04
2022-12-18T01:51:25.056Z,92.03
2022-12-18T01:53:51.426Z,92.02
2022-12-18T01:56:19.675Z,91.86
2022-12-18T01:59:00.730Z,91.80
2022-12-18T02:01:28.091Z,91.83
2022-12-18T02:03:54.487Z,91.85
2022-12-18T02:06:33.083Z,91.71
2022-12-18T02:09:07.579Z,91.49
2022-12-18T02:11:43.782Z,91.36
2022-12-18T02:14:19.586Z,91.50
2022-12-18T02:16:54.924Z,91.41
2022-12-18T02:19:42.959Z,91.33
2022-12-18T02:22:12.263Z,91.35
2022-12-18T02:25:29.664Z,91.13
2022-12-18T02:28:00.274Z,90.93
2022-12-18T02:30:29.943Z,90.86
2022-12-18T02:32:58.233Z,90.79
2022-12-18T02:35:28.395Z,90.70
2022-12-18T02:37:55.481Z,90.52
2022-12-18T02:40:24.943Z,90.54
2022-12-18T02:42:51.502Z,90.74
2022-12-18T02:45:17.903Z,90.57
2022-12-18T02:47:48.322Z,90.71
2022-12-18T02:50:26.171Z,90.64
2022-12-18T02:53:11.019Z,90.44
2022-12-18T02:55:52.556Z,90.43
2022-12-18T02:58:35.329Z,90.26
2022-12-18T03:01:11.196Z,90.13
2022-12-18T03:03:58.458Z,89.83
2022-12-18T03:06:29.830Z,89.85
2022-12-18T03:09:08.247Z,89.50
2022-12-18T03:12:00.048Z,89.48
2022-12-18T03:14:31.994Z,89.56
2022-12-18T03:17:03.458Z,89.45
2022-12-18T03:19:34.012Z,89.25
2022-12-18T03:22:04.528Z,89.20
2022-12-18T03:24:32.540Z,89.07
2022-12-18T03:27:03.351Z,89.10
2022-12-18T03:29:36.777Z,89.23
2022-12-18T03:32:08.582Z,89.53
2022-12-18T03:34:37.944Z,89.58
2022-12-18T03:37:05.551Z,89.54
2022-12-18T03:39:32.013Z,89.70
2022-12-18T03:42:19.895Z,89.49
2022-12-18T03:44:54.519Z,89.46
2022-12-18T03:47:30.466Z,88.96
2022-12-18T03:50:18.914Z,88.97
2022-12-18T03:52:53.715Z,88.68
2022-12-18T03:55:21.843Z,88.75
2022-12-18T03:57:51.513Z,88.58
2022-12-18T04:00:19.650Z,88.64
2022-12-18T04:02:50.982Z,88.57
2022-12-18T04:05:19.221Z,88.75
2022-12-18T04:07:48.669Z,88.51
2022-12-18T04:10:16.683Z,88.64
2022-12-18T04:12:43.524Z,88.67
2022-12-18T04:15:11.880Z,88.93
2022-12-18T04:17:39.983Z,88.75
2022-12-18T04:20:07.012Z,88.99
2022-12-18T04:22:33.463Z,89.57
2022-12-18T04:25:01.491Z,89.26
2022-12-18T04:27:27.914Z,89.27
2022-12-18T04:29:55.479Z,89.38
2022-12-18T04:32:22.933Z,89.37
2022-12-18T04:34:49.425Z,89.45
2022-12-18T04:37:16.071Z,89.53
2022-12-18T04:39:42.473Z,89.35
2022-12-18T04:42:08.778Z,89.38
2022-12-18T04:44:35.215Z,89.44
2022-12-18T04:47:01.507Z,89.36
2022-12-18T04:49:27.991Z,89.23
2022-12-18T04:51:54.558Z,89.28
2022-12-18T04:54:21.563Z,89.31
2022-12-18T04:56:47.871Z,89.31
2022-12-18T04:59:14.514Z,89.43
2022-12-18T05:01:41.020Z,89.36
2022-12-18T05:04:07.684Z,88.91
2022-12-18T05:06:34.088Z,89.15
2022-12-18T05:09:00.453Z,89.53
2022-12-18T05:11:26.892Z,89.58
2022-12-18T05:13:55.111Z,89.66
2022-12-18T05:16:21.496Z,89.64
2022-12-18T05:18:48.019Z,89.54
2022-12-18T05:21:14.462Z,89.42
2022-12-18T05:23:41.345Z,89.52
2022-12-18T05:26:08.679Z,89.62
2022-12-18T05:28:36.691Z,89.58
2022-12-18T05:31:04.831Z,89.67
2022-12-18T05:33:33.405Z,89.58
2022-12-18T05:36:06.053Z,89.41
2022-12-18T05:38:34.395Z,89.43
2022-12-18T05:41:00.830Z,89.46
2022-12-18T05:43:28.713Z,89.45
2022-12-18T05:45:57.013Z,89.33
2022-12-18T05:48:25.215Z,89.48
2022-12-18T05:50:53.290Z,89.37
2022-12-18T05:53:22.293Z,89.35
2022-12-18T05:55:48.731Z,89.31
2022-12-18T05:58:17.179Z,89.39
2022-12-18T06:00:47.197Z,89.23
2022-12-18T06:03:36.322Z,89.11
2022-12-18T06:06:05.067Z,89.20
2022-12-18T06:08:31.678Z,89.24
2022-12-18T06:10:58.251Z,89.10
2022-12-18T06:13:24.572Z,89.06
2022-12-18T06:15:50.905Z,89.06
2022-12-18T06:18:17.263Z,88.88
2022-12-18T06:20:44.714Z,88.66
2022-12-18T06:23:12.732Z,88.79
2022-12-18T06:25:40.951Z,88.50
2022-12-18T06:28:08.463Z,88.77
2022-12-18T06:30:34.953Z,88.70
2022-12-18T06:33:01.347Z,88.39
2022-12-18T06:35:27.635Z,88.19
2022-12-18T06:37:53.966Z,88.22
2022-12-18T06:40:20.281Z,88.35
2022-12-18T06:42:46.590Z,88.15
2022-12-18T06:45:15.851Z,88.46
2022-12-18T06:47:42.263Z,88.06
2022-12-18T06:50:08.779Z,88.01
2022-12-18T06:52:35.170Z,88.06
2022-12-18T06:55:01.807Z,87.86
2022-12-18T06:57:28.247Z,87.88
2022-12-18T06:59:54.626Z,88.04
2022-12-18T07:02:21.054Z,87.46
2022-12-18T07:04:47.466Z,87.05
2022-12-18T07:07:13.797Z,87.25
2022-12-18T07:09:41.811Z,87.16
2022-12-18T07:12:08.895Z,87.20
2022-12-18T07:14:35.248Z,87.24
2022-12-18T07:17:02.567Z,87.30
2022-12-18T07:19:29.867Z,87.36
2022-12-18T07:21:57.235Z,87.66
2022-12-18T07:24:23.591Z,87.62
2022-12-18T07:26:49.883Z,87.50
2022-12-18T07:29:16.461Z,87.76
2022-12-18T07:31:43.158Z,87.68
2022-12-18T07:34:14.535Z,88.00
2022-12-18T07:36:41.307Z,88.01
2022-12-18T07:39:07.863Z,87.90
2022-12-18T07:41:34.632Z,87.75
2022-12-18T07:44:02.990Z,87.83
2022-12-18T07:46:29.354Z,87.65
2022-12-18T07:48:55.660Z,87.52
2022-12-18T07:51:21.983Z,87.39
2022-12-18T07:53:49.763Z,87.32
2022-12-18T07:56:27.140Z,87.31
2022-12-18T07:58:55.566Z,87.03
2022-12-18T08:01:22.093Z,86.96
2022-12-18T08:03:48.506Z,87.25
2022-12-18T08:06:16.244Z,87.35
2022-12-18T08:08:43.120Z,87.41
2022-12-18T08:11:09.430Z,87.40
2022-12-18T08:13:35.935Z,87.61
2022-12-18T08:16:05.099Z,87.78
2022-12-18T08:18:33.749Z,87.64
2022-12-18T08:21:12.211Z,87.46
2022-12-18T08:23:42.608Z,87.41
2022-12-18T08:26:11.900Z,86.88
2022-12-18T08:28:38.614Z,86.70
2022-12-18T08:31:05.208Z,86.46
2022-12-18T08:33:32.283Z,85.73
2022-12-18T08:36:02.337Z,85.70
2022-12-18T08:38:28.672Z,85.54
2022-12-18T08:41:06.688Z,85.90
2022-12-18T08:43:51.762Z,85.80
2022-12-18T08:46:19.224Z,85.98
2022-12-18T08:48:46.360Z,85.87
2022-12-18T08:51:12.935Z,85.92
2022-12-18T08:53:39.957Z,85.96
2022-12-18T08:56:06.841Z,85.92
2022-12-18T08:58:33.174Z,85.78
2022-12-18T09:01:05.072Z,85.80
2022-12-18T09:03:31.720Z,85.42
2022-12-18T09:05:58.096Z,85.20
2022-12-18T09:08:24.444Z,84.39
2022-12-18T09:10:52.486Z,84.60
2022-12-18T09:13:19.417Z,84.70
2022-12-18T09:15:49.220Z,85.12
2022-12-18T09:18:17.489Z,85.15
2022-12-18T09:20:44.155Z,85.47
2022-12-18T09:23:10.827Z,85.46
2022-12-18T09:25:37.844Z,85.49
2022-12-18T09:28:11.246Z,85.76
2022-12-18T09:30:42.809Z,85.81
2022-12-18T09:33:10.291Z,86.04
2022-12-18T09:35:40.830Z,86.08
2022-12-18T09:38:09.561Z,86.25
2022-12-18T09:40:40.733Z,86.39
2022-12-18T09:43:08.466Z,86.43
2022-12-18T09:45:50.660Z,86.37
2022-12-18T09:48:24.498Z,86.46
2022-12-18T09:50:52.655Z,86.74
2022-12-18T09:53:25.916Z,86.84
2022-12-18T09:55:54.027Z,86.75
2022-12-18T09:58:32.519Z,86.97
2022-12-18T10:00:58.876Z,86.90
2022-12-18T10:03:25.316Z,86.90
2022-12-18T10:06:11.976Z,86.85
2022-12-18T10:08:50.011Z,86.91
2022-12-18T10:11:41.025Z,86.82
2022-12-18T10:14:15.279Z,86.86
2022-12-18T10:16:59.577Z,87.07
2022-12-18T10:19:40.675Z,86.90
2022-12-18T10:22:20.123Z,86.80
2022-12-18T10:25:04.963Z,86.88
2022-12-18T10:27:32.024Z,86.65
2022-12-18T10:30:01.249Z,86.72
2022-12-18T10:32:30.159Z,86.79
2022-12-18T10:35:00.704Z,86.79
2022-12-18T10:37:29.909Z,87.02
2022-12-18T10:40:18.287Z,86.97
2022-12-18T10:43:03.603Z,86.96
2022-12-18T10:45:30.156Z,87.01
2022-12-18T10:47:56.646Z,86.81
2022-12-18T10:51:09.638Z,86.58
2022-12-18T10:53:27.555Z,86.43
2022-12-18T10:55:57.045Z,86.30
2022-12-18T10:58:38.858Z,86.20
2022-12-18T11:01:14.805Z,86.11
2022-12-18T11:03:42.506Z,86.18
2022-12-18T11:06:12.149Z,85.91
2022-12-18T11:08:39.183Z,85.95
2022-12-18T11:11:21.143Z,85.84
2022-12-18T11:14:04.718Z,85.72
2022-12-18T11:16:37.232Z,85.87
2022-12-18T11:19:37.309Z,85.56
2022-12-18T11:22:21.096Z,85.37
2022-12-18T11:25:30.856Z,85.53
2022-12-18T11:28:30.233Z,85.33
2022-12-18T11:31:21.669Z,85.29
2022-12-18T11:34:19.604Z,85.01
2022-12-18T11:36:43.210Z,84.87
2022-12-18T11:39:24.032Z,84.64
2022-12-18T11:42:11.544Z,84.59
2022-12-18T11:44:52.396Z,84.33
2022-12-18T11:47:34.982Z,84.40
2022-12-18T11:50:03.451Z,84.25
2022-12-18T11:52:39.025Z,84.12
2022-12-18T11:55:11.308Z,83.95
2022-12-18T11:57:46.353Z,83.42
2022-12-18T12:00:22.113Z,83.19
2022-12-18T12:03:07.204Z,83.60
2022-12-18T12:05:36.508Z,83.56
2022-12-18T12:08:18.260Z,83.53
2022-12-18T12:11:07.524Z,83.47
2022-12-18T12:13:40.239Z,83.07
2022-12-18T12:16:30.047Z,82.98
2022-12-18T12:19:23.262Z,82.87
2022-12-18T12:22:01.451Z,82.89
2022-12-18T12:24:56.875Z,82.85
2022-12-18T12:27:35.201Z,82.31
2022-12-18T12:30:10.345Z,82.67
2022-12-18T12:32:46.617Z,82.37
2022-12-18T12:35:43.110Z,82.24
2022-12-18T12:38:15.698Z,82.20
2022-12-18T12:40:55.205Z,82.13
2022-12-18T12:43:40.357Z,81.87
2022-12-18T12:46:12.190Z,81.83
2022-12-18T12:48:50.044Z,82.01
2022-12-18T12:51:23.208Z,81.59
2022-12-18T12:53:50.931Z,81.49
2022-12-18T12:56:20.217Z,81.58
2022-12-18T12:58:56.407Z,81.86
2022-12-18T13:01:26.848Z,81.76
2022-12-18T13:04:12.214Z,81.45
2022-12-18T13:07:05.371Z,81.74
2022-12-18T13:09:36.793Z,81.63
2022-12-18T13:12:35.172Z,81.35
2022-12-18T13:15:41.827Z,81.46
2022-12-18T13:18:11.170Z,81.34
2022-12-18T13:20:47.900Z,81.01
2022-12-18T13:23:25.161Z,80.94
2022-12-18T13:26:11.245Z,80.98
2022-12-18T13:28:46.872Z,81.04
2022-12-18T13:31:14.272Z,81.19
2022-12-18T13:34:16.949Z,81.03
2022-12-18T13:36:34.590Z,81.03
2022-12-18T13:39:26.555Z,81.07
2022-12-18T13:42:31.377Z,81.11
2022-12-18T13:44:58.783Z,81.03
2022-12-18T13:47:38.300Z,81.10
2022-12-18T13:50:29.739Z,81.12
2022-12-18T13:53:00.351Z,80.91
2022-12-18T13:55:26.688Z,80.89
2022-12-18T13:58:05.376Z,80.78
2022-12-18T14:00:32.640Z,80.76
2022-12-18T14:03:00.455Z,80.44
2022-12-18T14:05:37.121Z,80.55
2022-12-18T14:08:09.291Z,80.54
2022-12-18T14:10:49.337Z,80.92
2022-12-18T14:13:32.982Z,80.75
2022-12-18T14:16:04.247Z,80.34
2022-12-18T14:18:34.799Z,80.56
2022-12-18T14:21:04.659Z,80.36
2022-12-18T14:23:35.595Z,80.32
2022-12-18T14:26:06.282Z,80.60
2022-12-18T14:28:33.078Z,80.19
2022-12-18T14:30:59.521Z,80.26
2022-12-18T14:33:28.286Z,80.31
2022-12-18T14:36:01.611Z,80.24
2022-12-18T14:38:38.527Z,80.11
2022-12-18T14:41:12.796Z,80.15
2022-12-18T14:43:43.737Z,80.00
2022-12-18T14:46:39.777Z,80.32
2022-12-18T14:49:30.150Z,79.95
2022-12-18T14:52:02.254Z,79.70
2022-12-18T14:54:30.835Z,79.69
2022-12-18T14:57:18.069Z,79.56
2022-12-18T14:59:44.451Z,79.68
2022-12-18T15:02:28.890Z,79.27
2022-12-18T15:05:02.662Z,79.48
2022-12-18T15:07:41.823Z,79.76
2022-12-18T15:10:08.050Z,79.79
2022-12-18T15:12:37.059Z,79.62
2022-12-18T15:15:05.621Z,79.40
2022-12-18T15:17:32.298Z,79.14
2022-12-18T15:20:10.032Z,78.88
2022-12-18T15:22:37.240Z,79.18
2022-12-18T15:25:24.767Z,78.97
2022-12-18T15:27:56.030Z,78.94
2022-12-18T15:30:24.706Z,79.25
2022-12-18T15:32:52.502Z,78.77
2022-12-18T15:35:21.875Z,78.77
2022-12-18T15:37:48.800Z,78.55
2022-12-18T15:40:23.959Z,78.58
2022-12-18T15:43:13.381Z,78.67
2022-12-18T15:45:39.824Z,78.88
2022-12-18T15:48:21.231Z,78.57
2022-12-18T15:50:49.928Z,78.46
2022-12-18T15:53:16.254Z,78.67
2022-12-18T15:56:01.564Z,78.42
2022-12-18T15:58:27.943Z,78.35
2022-12-18T16:00:56.606Z,78.41
2022-12-18T16:03:22.965Z,78.39
2022-12-18T16:05:49.857Z,78.56
2022-12-18T16:08:16.176Z,78.34
2022-12-18T16:10:42.507Z,78.36
2022-12-18T16:13:16.424Z,77.91
2022-12-18T16:15:45.751Z,77.94
2022-12-18T16:18:12.097Z,77.94
2022-12-18T16:20:39.421Z,78.04
2022-12-18T16:23:05.764Z,78.15
2022-12-18T16:25:32.150Z,77.95
2022-12-18T16:27:58.516Z,77.89
2022-12-18T16:30:32.716Z,77.80
2022-12-18T16:33:05.247Z,77.90
2022-12-18T16:35:31.606Z,77.60
2022-12-18T16:37:57.926Z,77.76
2022-12-18T16:40:24.214Z,77.69
2022-12-18T16:42:50.570Z,77.94
2022-12-18T16:45:18.256Z,77.70
2022-12-18T16:47:45.007Z,77.53
2022-12-18T16:50:12.233Z,77.67
2022-12-18T16:52:39.059Z,77.63
2022-12-18T16:55:06.164Z,77.76
2022-12-18T16:57:32.978Z,77.87
2022-12-18T17:00:04.651Z,78.14
2022-12-18T17:02:32.300Z,77.99
2022-12-18T17:04:59.386Z,77.96
2022-12-18T17:07:26.698Z,77.85
2022-12-18T17:09:53.992Z,77.88
2022-12-18T17:12:21.015Z,77.91
2022-12-18T17:14:47.442Z,78.13
2022-12-18T17:17:22.802Z,77.94
2022-12-18T17:19:50.294Z,77.43
2022-12-18T17:22:16.608Z,77.83
2022-12-18T17:24:42.920Z,77.79
2022-12-18T17:27:09.311Z,77.74
2022-12-18T17:29:36.014Z,77.74
2022-12-18T17:32:02.355Z,77.88
2022-12-18T17:34:29.025Z,77.81
2022-12-18T17:36:56.543Z,77.99
2022-12-18T17:39:22.853Z,78.03
2022-12-18T17:41:49.865Z,77.79
2022-12-18T17:44:17.050Z,77.79
2022-12-18T17:46:45.894Z,77.95
2022-12-18T17:49:12.387Z,77.89
2022-12-18T17:51:39.472Z,78.06
2022-12-18T17:54:05.953Z,78.24
2022-12-18T17:56:32.820Z,77.90
2022-12-18T17:58:59.253Z,78.16
2022-12-18T18:01:26.290Z,78.20
2022-12-18T18:03:55.857Z,78.47
2022-12-18T18:06:23.303Z,78.41
2022-12-18T18:08:49.986Z,78.29
2022-12-18T18:11:51.275Z,78.31
2022-12-18T18:14:20.243Z,78.49
2022-12-18T18:16:51.919Z,78.32
2022-12-18T18:19:21.992Z,78.21
2022-12-18T18:21:52.064Z,78.36
2022-12-18T18:24:23.186Z,78.31
2022-12-18T18:26:49.922Z,78.33
2022-12-18T18:29:22.057Z,78.36
2022-12-18T18:31:48.793Z,78.44
2022-12-18T18:34:17.819Z,78.34
2022-12-18T18:36:46.039Z,78.34
2022-12-18T18:39:13.464Z,78.58
2022-12-18T18:41:39.759Z,78.46
2022-12-18T18:44:06.878Z,78.19
2022-12-18T18:46:33.427Z,78.21
2022-12-18T18:48:59.745Z,78.21
2022-12-18T18:51:31.467Z,78.32
2022-12-18T18:54:00.994Z,78.20
2022-12-18T18:59:13.803Z,78.04
2022-12-18T19:01:40.337Z,78.03
2022-12-18T19:04:06.816Z,78.24
2022-12-18T19:06:33.378Z,77.90
2022-12-18T19:09:02.289Z,77.72
2022-12-18T19:11:47.237Z,77.70
2022-12-18T19:14:15.116Z,77.51
2022-12-18T19:16:43.084Z,77.49
2022-12-18T19:19:09.768Z,77.47
2022-12-18T19:21:38.056Z,77.19
2022-12-18T19:24:05.536Z,77.12
2022-12-18T19:26:32.077Z,77.30
2022-12-18T19:29:03.334Z,77.09
2022-12-18T19:31:35.141Z,77.06
2022-12-18T19:34:03.759Z,76.99
2022-12-18T19:36:31.111Z,76.87
2022-12-18T19:38:59.460Z,76.70
2022-12-18T19:41:28.260Z,76.80
2022-12-18T19:43:57.383Z,76.78
2022-12-18T19:46:23.999Z,76.53
2022-12-18T19:48:51.111Z,76.65
2022-12-18T19:51:21.317Z,76.68
2022-12-18T19:53:49.293Z,76.85
2022-12-18T19:56:20.054Z,77.06
2022-12-18T19:58:47.058Z,77.57
2022-12-18T20:01:16.668Z,78.36
2022-12-18T20:03:44.829Z,78.88
2022-12-18T20:06:26.224Z,79.97
2022-12-18T20:08:57.986Z,80.46
2022-12-18T20:11:26.700Z,81.12
2022-12-18T20:13:53.008Z,81.71
2022-12-18T20:16:19.390Z,81.76
2022-12-18T20:18:45.722Z,82.13
2022-12-18T20:21:14.017Z,82.55
2022-12-18T20:23:41.368Z,83.05
2022-12-18T20:26:08.693Z,83.76
2022-12-18T20:28:35.201Z,83.79
2022-12-18T20:31:03.990Z,84.23
2022-12-18T20:33:30.875Z,84.47
2022-12-18T20:36:02.447Z,84.83
2022-12-18T20:38:30.574Z,85.08
2022-12-18T20:40:59.304Z,85.41
2022-12-18T20:43:25.620Z,85.41
2022-12-18T20:45:59.747Z,85.78
2022-12-18T20:48:27.127Z,85.94
2022-12-18T20:51:08.156Z,86.26
2022-12-18T20:53:35.375Z,86.32
2022-12-18T20:56:08.308Z,86.52
2022-12-18T20:58:35.641Z,86.71
2022-12-18T21:01:13.161Z,86.98
2022-12-18T21:03:41.036Z,87.23
2022-12-18T21:06:08.604Z,87.47
2022-12-18T21:08:34.947Z,87.68
2022-12-18T21:11:38.346Z,87.90
2022-12-18T21:14:09.086Z,87.97
2022-12-18T21:16:35.817Z,88.08
2022-12-18T21:19:02.253Z,88.41
2022-12-18T21:21:28.900Z,88.16
2022-12-18T21:23:55.271Z,88.58
2022-12-18T21:26:24.367Z,88.76
2022-12-18T21:28:56.298Z,88.89
2022-12-18T21:31:24.955Z,89.21
2022-12-18T21:33:52.007Z,89.27
2022-12-18T21:36:26.163Z,89.56
2022-12-18T21:38:57.124Z,89.55
2022-12-18T21:41:43.050Z,89.64
2022-12-18T21:44:14.056Z,89.76
2022-12-18T21:46:48.950Z,89.98
2022-12-18T21:49:21.292Z,90.17
2022-12-18T21:51:49.426Z,90.32
2022-12-18T21:54:16.406Z,90.37
2022-12-18T21:56:56.277Z,90.58
2022-12-18T21:59:25.485Z,90.71
2022-12-18T22:01:52.990Z,90.91
2022-12-18T22:04:20.506Z,90.88
2022-12-18T22:06:48.202Z,91.05
2022-12-18T22:09:20.066Z,91.01
2022-12-18T22:11:47.273Z,91.44
2022-12-18T22:14:14.868Z,91.46
2022-12-18T22:16:41.916Z,91.43
2022-12-18T22:19:10.018Z,91.54
2022-12-18T22:21:39.623Z,91.81
2022-12-18T22:24:10.008Z,91.68
2022-12-18T22:26:40.200Z,91.69
2022-12-18T22:29:26.676Z,91.66
2022-12-18T22:31:53.008Z,91.96
2022-12-18T22:34:22.838Z,91.87
2022-12-18T22:36:49.827Z,92.11
2022-12-18T22:39:21.734Z,92.27
2022-12-18T22:41:48.411Z,92.13
2022-12-18T22:44:15.208Z,92.28
2022-12-18T22:46:47.733Z,92.52
2022-12-18T22:49:21.831Z,92.56
2022-12-18T22:51:48.849Z,92.72
2022-12-18T22:54:15.773Z,92.84
2022-12-18T22:56:42.866Z,92.61
2022-12-18T22:59:16.758Z,92.54
2022-12-18T23:01:44.010Z,92.87
2022-12-18T23:04:13.103Z,92.93
2022-12-18T23:06:40.578Z,93.09
2022-12-18T23:09:07.722Z,92.93
2022-12-18T23:11:34.035Z,93.04
2022-12-18T23:14:00.566Z,93.10
2022-12-18T23:16:28.006Z,93.14
2022-12-18T23:18:55.390Z,93.05
2022-12-18T23:21:23.163Z,93.19
2022-12-18T23:23:50.893Z,93.09
2022-12-18T23:26:20.204Z,93.39
2022-12-18T23:28:47.093Z,93.24
2022-12-18T23:31:14.870Z,93.24
2022-12-18T23:33:43.491Z,93.56
2022-12-18T23:36:11.936Z,93.54
2022-12-18T23:38:39.537Z,93.53
2022-12-18T23:41:11.164Z,93.64
2022-12-18T23:43:38.527Z,93.49
2022-12-18T23:46:16.611Z,93.59
2022-12-18T23:48:42.939Z,93.96
2022-12-18T23:51:11.538Z,93.80
2022-12-18T23:53:37.980Z,93.79
2022-12-18T23:56:08.390Z,93.90
2022-12-18T23:58:35.819Z,93.97
